Terminal Aerodrome Forecast
Issued by NWS Twin Cities, MN

Home | Current Version | Previous Version | Text Only | Print | Product List | Glossary On
Versions: 1 2 3 4 5 6 7 8 9 10 11 12 13 14 15 16 17 18
000
FTUS43 KMPX 310500
TAFEAU
TAF
KEAU 310521Z 3106/0106 24003KT P6SM SKC
      TEMPO 3107/3108 3SM BR
     FM310800 VRB02KT 3SM BR FEW002
      TEMPO 3108/3112 1/4SM FG VV002
     FM311200 VRB02KT 1SM BR BKN002
     FM311400 29009KT P6SM SCT045
     FM010200 24003KT P6SM SKC=

USA.gov is the U.S. government's official web portal to all federal, state and local government web resources and services.